createdAt,value
2019-03-22T00:00:26.051Z,99228.48
2019-03-22T00:02:55.996Z,99227.20
2019-03-22T00:05:24.625Z,99219.34
2019-03-22T00:07:56.123Z,99218.03
2019-03-22T00:10:24.546Z,99214.14
2019-03-22T00:12:53.075Z,99215.84
2019-03-22T00:15:21.797Z,99210.66
2019-03-22T00:17:50.485Z,99211.07
2019-03-22T00:20:19.124Z,99209.30
2019-03-22T00:22:47.804Z,99209.29
2019-03-22T00:25:16.353Z,99201.47
2019-03-22T00:27:44.858Z,99210.61
2019-03-22T00:30:13.230Z,99200.61
2019-03-22T00:32:41.757Z,99203.63
2019-03-22T00:35:10.193Z,99201.44
2019-03-22T00:37:38.456Z,99206.64
2019-03-22T00:40:07.118Z,99206.18
2019-03-22T00:42:35.364Z,99210.97
2019-03-22T00:45:04.309Z,99207.05
2019-03-22T00:47:32.917Z,99205.31
2019-03-22T00:50:01.332Z,99201.81
2019-03-22T00:52:29.857Z,99207.93
2019-03-22T00:54:58.587Z,99210.53
2019-03-22T00:57:28.785Z,99211.87
2019-03-22T00:59:57.623Z,99201.88
2019-03-22T01:02:26.443Z,99200.57
2019-03-22T01:04:54.758Z,99200.55
2019-03-22T01:07:23.434Z,99200.56
2019-03-22T01:09:51.868Z,99200.10
2019-03-22T01:12:20.298Z,99196.59
2019-03-22T01:14:48.702Z,99190.08
2019-03-22T01:17:17.543Z,99190.04
2019-03-22T01:19:46.023Z,99186.55
2019-03-22T01:22:14.516Z,99191.37
2019-03-22T01:24:42.968Z,99193.95
2019-03-22T01:27:11.587Z,99191.82
2019-03-22T01:29:40.104Z,99190.05
2019-03-22T01:32:08.901Z,99191.75
2019-03-22T01:34:37.105Z,99181.33
2019-03-22T01:37:06.544Z,99184.38
2019-03-22T01:39:35.066Z,99183.50
2019-03-22T01:42:03.913Z,99178.73
2019-03-22T01:44:32.427Z,99181.34
2019-03-22T01:47:01.279Z,99177.77
2019-03-22T01:49:29.708Z,99177.37
2019-03-22T01:51:58.316Z,99151.66
2019-03-22T01:54:26.884Z,99164.27
2019-03-22T01:56:55.445Z,99161.27
2019-03-22T01:59:23.724Z,99165.61
2019-03-22T02:01:52.157Z,99161.70
2019-03-22T02:04:20.432Z,99162.13
2019-03-22T02:06:48.831Z,99165.17
2019-03-22T02:09:17.274Z,99168.23
2019-03-22T02:11:45.779Z,99167.75
2019-03-22T02:14:14.131Z,99168.59
2019-03-22T02:16:42.667Z,99165.98
2019-03-22T02:19:11.417Z,99164.66
2019-03-22T02:21:40.636Z,99162.48
2019-03-22T02:24:09.072Z,99162.47
2019-03-22T02:26:37.784Z,99162.87
2019-03-22T02:29:06.315Z,99162.89
2019-03-22T02:31:34.795Z,99153.70
2019-03-22T02:34:03.299Z,99158.91
2019-03-22T02:36:31.888Z,99157.59
2019-03-22T02:39:00.384Z,99164.98
2019-03-22T02:41:28.763Z,99166.41
2019-03-22T02:43:57.219Z,99166.91
2019-03-22T02:46:25.880Z,99166.03
2019-03-22T02:48:54.477Z,99173.38
2019-03-22T02:51:23.321Z,99171.62
2019-03-22T02:53:51.791Z,99171.97
2019-03-22T02:56:20.417Z,99171.50
2019-03-22T02:58:50.245Z,99162.77
2019-03-22T03:01:19.028Z,99161.91
2019-03-22T03:03:47.481Z,99161.08
2019-03-22T03:06:16.126Z,99158.03
2019-03-22T03:08:44.593Z,99161.11
2019-03-22T03:11:13.169Z,99158.10
2019-03-22T03:13:41.709Z,99160.33
2019-03-22T03:16:10.304Z,99167.71
2019-03-22T03:18:38.693Z,99163.37
2019-03-22T03:21:07.170Z,99169.03
2019-03-22T03:23:35.599Z,99162.86
2019-03-22T03:26:05.264Z,99165.41
2019-03-22T03:28:37.090Z,99162.66
2019-03-22T03:31:04.466Z,99160.88
2019-03-22T03:33:32.962Z,99162.64
2019-03-22T03:36:01.305Z,99160.52
2019-03-22T03:38:29.866Z,99166.14
2019-03-22T03:40:58.382Z,99163.91
2019-03-22T03:43:26.802Z,99162.55
2019-03-22T03:45:55.148Z,99164.84
2019-03-22T03:48:23.365Z,99169.25
2019-03-22T03:50:51.956Z,99168.30
2019-03-22T03:53:20.784Z,99163.95
2019-03-22T03:55:49.343Z,99166.55
2019-03-22T03:58:18.755Z,99162.23
2019-03-22T04:00:47.358Z,99167.35
2019-03-22T04:03:15.937Z,99165.63
2019-03-22T04:05:44.452Z,99170.42
2019-03-22T04:08:12.979Z,99169.13
2019-03-22T04:10:41.744Z,99165.22
2019-03-22T04:13:10.588Z,99170.42
2019-03-22T04:15:39.440Z,99167.28
2019-03-22T04:18:07.911Z,99168.95
2019-03-22T04:20:36.321Z,99167.22
2019-03-22T04:23:04.842Z,99162.50
2019-03-22T04:25:33.439Z,99159.11
2019-03-22T04:28:02.006Z,99162.05
2019-03-22T04:30:30.568Z,99159.89
2019-03-22T04:32:59.340Z,99168.20
2019-03-22T04:35:27.892Z,99161.70
2019-03-22T04:37:56.359Z,99170.92
2019-03-22T04:40:26.202Z,99174.43
2019-03-22T04:42:56.132Z,99172.65
2019-03-22T04:45:25.579Z,99184.34
2019-03-22T04:47:58.812Z,99176.38
2019-03-22T04:50:29.189Z,99182.80
2019-03-22T04:52:57.747Z,99175.34
2019-03-22T04:55:26.724Z,99174.05
2019-03-22T04:57:55.850Z,99181.01
2019-03-22T05:00:24.491Z,99180.62
2019-03-22T05:02:53.446Z,99178.81
2019-03-22T05:05:22.021Z,99187.06
2019-03-22T05:07:51.481Z,99179.20
2019-03-22T05:10:20.805Z,99190.83
2019-03-22T05:12:49.890Z,99193.87
2019-03-22T05:15:19.503Z,99193.00
2019-03-22T05:17:48.198Z,99197.33
2019-03-22T05:20:17.267Z,99202.49
2019-03-22T05:22:47.334Z,99202.05
2019-03-22T05:25:15.807Z,99205.55
2019-03-22T05:27:45.449Z,99206.05
2019-03-22T05:30:43.690Z,99206.95
2019-03-22T05:33:12.172Z,99201.74
2019-03-22T05:35:40.674Z,99205.23
2019-03-22T05:38:09.373Z,99202.80
2019-03-22T05:40:37.896Z,99198.09
2019-03-22T05:43:06.595Z,99198.13
2019-03-22T05:45:35.091Z,99203.42
2019-03-22T05:48:03.746Z,99194.81
2019-03-22T05:50:32.198Z,99193.63
2019-03-22T05:53:00.683Z,99204.22
2019-03-22T05:55:29.390Z,99199.94
2019-03-22T05:57:57.591Z,99205.22
2019-03-22T06:00:26.080Z,99181.36
2019-03-22T06:02:54.561Z,99207.13
2019-03-22T06:05:23.148Z,99197.12
2019-03-22T06:07:52.066Z,99201.06
2019-03-22T06:10:20.526Z,99206.73
2019-03-22T06:12:49.180Z,99204.55
2019-03-22T06:15:17.581Z,99203.20
2019-03-22T06:17:51.588Z,99207.05
2019-03-22T06:20:16.543Z,99203.40
2019-03-22T06:22:44.962Z,99208.55
2019-03-22T06:25:13.451Z,99211.53
2019-03-22T06:27:41.825Z,99211.83
2019-03-22T06:30:10.391Z,99203.42
2019-03-22T06:32:38.987Z,99206.63
2019-03-22T06:35:07.560Z,99178.20
2019-03-22T06:37:35.952Z,99206.09
2019-03-22T06:40:04.765Z,99215.83
2019-03-22T06:42:33.405Z,99210.74
2019-03-22T06:45:01.924Z,99209.59
2019-03-22T06:47:30.407Z,99214.61
2019-03-22T06:49:58.837Z,99208.49
2019-03-22T06:52:27.545Z,99208.96
2019-03-22T06:54:56.557Z,99213.31
2019-03-22T06:57:25.111Z,99206.83
2019-03-22T07:00:05.519Z,99211.02
2019-03-22T07:02:24.179Z,99217.19
2019-03-22T07:04:52.590Z,99220.62
2019-03-22T07:07:21.035Z,99220.38
2019-03-22T07:09:49.495Z,99212.70
2019-03-22T07:12:18.098Z,99215.83
2019-03-22T07:14:46.535Z,99217.49
2019-03-22T07:17:15.278Z,99203.86
2019-03-22T07:19:43.683Z,99203.38
2019-03-22T07:22:12.163Z,99187.92
2019-03-22T07:24:40.500Z,99193.40
2019-03-22T07:27:08.842Z,99202.01
2019-03-22T07:29:37.368Z,99194.15
2019-03-22T07:32:05.718Z,99192.34
2019-03-22T07:34:35.917Z,99168.56
2019-03-22T07:37:04.224Z,99191.28
2019-03-22T07:39:32.734Z,99194.31
2019-03-22T07:42:01.174Z,99183.13
2019-03-22T07:44:29.677Z,99178.34
2019-03-22T07:46:58.080Z,99180.27
2019-03-22T07:49:26.423Z,99174.72
2019-03-22T07:51:55.273Z,99166.69
2019-03-22T07:54:23.659Z,99159.19
2019-03-22T07:56:52.030Z,99159.39
2019-03-22T07:59:20.511Z,99155.08
2019-03-22T08:01:49.083Z,99154.91
2019-03-22T08:04:17.534Z,99154.86
2019-03-22T08:06:46.241Z,99147.17
2019-03-22T08:09:14.704Z,99146.94
2019-03-22T08:11:43.118Z,99156.22
2019-03-22T08:14:11.677Z,99144.25
2019-03-22T08:16:40.062Z,99146.84
2019-03-22T08:19:08.421Z,99142.07
2019-03-22T08:21:37.168Z,99137.17
2019-03-22T08:24:05.511Z,99132.46
2019-03-22T08:26:33.928Z,99139.22
2019-03-22T08:29:02.470Z,99141.82
2019-03-22T08:31:30.775Z,99141.45
2019-03-22T08:33:59.377Z,99147.48
2019-03-22T08:36:28.089Z,99133.34
2019-03-22T08:38:56.591Z,99136.26
2019-03-22T08:41:24.953Z,99139.81
2019-03-22T08:43:53.461Z,99133.67
2019-03-22T08:46:21.924Z,99131.39
2019-03-22T08:48:51.334Z,99128.26
2019-03-22T08:51:19.756Z,99132.20
2019-03-22T08:53:55.107Z,99102.66
2019-03-22T08:56:18.473Z,99126.16
2019-03-22T08:58:46.946Z,99120.48
2019-03-22T09:01:15.523Z,99114.52
2019-03-22T09:03:43.977Z,99116.96
2019-03-22T09:06:12.459Z,99122.61
2019-03-22T09:08:40.893Z,99114.33
2019-03-22T09:11:09.300Z,99105.34
2019-03-22T09:13:37.904Z,99113.21
2019-03-22T09:16:06.266Z,99109.96
2019-03-22T09:18:34.708Z,99111.98
2019-03-22T09:21:03.478Z,99106.80
2019-03-22T09:23:32.067Z,99108.23
2019-03-22T09:26:00.583Z,99110.34
2019-03-22T09:28:29.240Z,99106.05
2019-03-22T09:31:09.742Z,99100.17
2019-03-22T09:33:28.006Z,99107.64
2019-03-22T09:35:56.531Z,99103.42
2019-03-22T09:38:25.064Z,99106.70
2019-03-22T09:40:53.380Z,99107.09
2019-03-22T09:43:21.761Z,99115.94
2019-03-22T09:45:50.268Z,99105.91
2019-03-22T09:48:18.818Z,99096.95
2019-03-22T09:50:47.435Z,99085.16
2019-03-22T09:53:16.915Z,99087.77
2019-03-22T09:55:45.385Z,99064.84
2019-03-22T09:58:13.962Z,99091.28
2019-03-22T10:00:42.365Z,99082.81
2019-03-22T10:03:10.935Z,99081.13
2019-03-22T10:05:39.295Z,99072.85
2019-03-22T10:08:07.895Z,99076.38
2019-03-22T10:10:36.327Z,99061.74
2019-03-22T10:13:04.847Z,99062.85
2019-03-22T10:15:33.349Z,99065.34
2019-03-22T10:18:02.210Z,99057.66
2019-03-22T10:20:30.754Z,99056.70
2019-03-22T10:22:59.276Z,99070.50
2019-03-22T10:25:27.730Z,99057.63
2019-03-22T10:27:56.159Z,99055.52
2019-03-22T10:30:24.659Z,99054.98
2019-03-22T10:32:53.059Z,99051.31
2019-03-22T10:35:26.262Z,99048.81
2019-03-22T10:38:00.083Z,99044.30
2019-03-22T10:40:22.150Z,99038.03
2019-03-22T10:42:50.781Z,99034.64
2019-03-22T10:45:19.339Z,99037.22
2019-03-22T10:47:47.904Z,99045.78
2019-03-22T10:50:16.540Z,99040.04
2019-03-22T10:52:48.196Z,99040.42
2019-03-22T10:55:29.322Z,99032.05
2019-03-22T10:57:47.316Z,99035.01
2019-03-22T11:00:16.925Z,99033.86
2019-03-22T11:02:45.489Z,99037.27
2019-03-22T11:05:13.984Z,99036.43
2019-03-22T11:07:42.666Z,99030.81
2019-03-22T11:10:13.539Z,99039.16
2019-03-22T11:12:41.756Z,99029.72
2019-03-22T11:15:11.211Z,99021.89
2019-03-22T11:17:39.680Z,99019.54
2019-03-22T11:20:10.292Z,99009.95
2019-03-22T11:22:38.981Z,99022.38
2019-03-22T11:25:09.137Z,99002.73
2019-03-22T11:27:37.698Z,99014.39
2019-03-22T11:30:08.078Z,99002.53
2019-03-22T11:32:37.088Z,99011.30
2019-03-22T11:35:06.926Z,98993.74
2019-03-22T11:37:35.573Z,99004.45
2019-03-22T11:40:04.947Z,98992.30
2019-03-22T11:42:33.594Z,98991.39
2019-03-22T11:45:02.126Z,98995.98
2019-03-22T11:47:31.619Z,98991.41
2019-03-22T11:49:59.885Z,98990.52
2019-03-22T11:52:28.696Z,98993.42
2019-03-22T11:54:57.336Z,98985.13
2019-03-22T11:57:25.957Z,98978.58
2019-03-22T11:59:54.200Z,98979.48
2019-03-22T12:02:24.087Z,98973.59
2019-03-22T12:04:53.651Z,98965.72
2019-03-22T12:07:22.011Z,98962.23
2019-03-22T12:09:50.500Z,98954.87
2019-03-22T12:12:19.021Z,98955.64
2019-03-22T12:14:47.643Z,98952.72
2019-03-22T12:17:16.382Z,98944.73
2019-03-22T12:19:44.839Z,98946.89
2019-03-22T12:22:13.458Z,98948.09
2019-03-22T12:24:41.693Z,98931.45
2019-03-22T12:27:11.216Z,98920.96
2019-03-22T12:29:39.576Z,98926.52
2019-03-22T12:32:08.079Z,98921.05
2019-03-22T12:34:36.462Z,98919.40
2019-03-22T12:37:05.037Z,98916.02
2019-03-22T12:39:33.585Z,98913.19
2019-03-22T12:42:01.949Z,98913.60
2019-03-22T12:44:30.276Z,98908.88
2019-03-22T12:46:58.970Z,98913.68
2019-03-22T12:49:29.135Z,98908.20
2019-03-22T12:51:57.846Z,98900.02
2019-03-22T12:54:26.559Z,98896.37
2019-03-22T12:56:55.287Z,98893.01
2019-03-22T12:59:23.828Z,98889.20
2019-03-22T13:01:52.460Z,98879.19
2019-03-22T13:04:21.019Z,98879.50
2019-03-22T13:06:49.630Z,98876.23
2019-03-22T13:09:18.052Z,98873.25
2019-03-22T13:11:46.923Z,98868.40
2019-03-22T13:14:15.440Z,98867.00
2019-03-22T13:16:44.013Z,98869.75
2019-03-22T13:19:12.323Z,98869.41
2019-03-22T13:21:40.870Z,98866.66
2019-03-22T13:24:09.624Z,98867.86
2019-03-22T13:26:38.069Z,98864.36
2019-03-22T13:29:06.584Z,98860.68
2019-03-22T13:31:34.892Z,98853.31
2019-03-22T13:34:03.547Z,98840.75
2019-03-22T13:36:32.289Z,98847.89
2019-03-22T13:39:00.853Z,98844.91
2019-03-22T13:41:31.122Z,98849.35
2019-03-22T13:43:59.768Z,98839.20
2019-03-22T13:46:28.460Z,98843.02
2019-03-22T13:48:56.979Z,98848.38
2019-03-22T13:51:25.354Z,98848.69
2019-03-22T13:53:53.804Z,98834.52
2019-03-22T13:56:22.337Z,98844.33
2019-03-22T13:58:50.869Z,98839.01
2019-03-22T14:01:19.258Z,98842.93
2019-03-22T14:03:47.806Z,98839.67
2019-03-22T14:06:16.467Z,98833.59
2019-03-22T14:08:44.969Z,98831.83
2019-03-22T14:11:13.617Z,98833.11
2019-03-22T14:13:42.039Z,98824.11
2019-03-22T14:16:10.654Z,98823.98
2019-03-22T14:18:39.037Z,98828.88
2019-03-22T14:21:07.542Z,98817.33
2019-03-22T14:23:35.832Z,98819.28
2019-03-22T14:26:04.453Z,98823.87
2019-03-22T14:28:33.340Z,98816.87
2019-03-22T14:31:01.688Z,98815.65
2019-03-22T14:33:30.288Z,98806.06
2019-03-22T14:35:59.229Z,98803.53
2019-03-22T14:38:27.567Z,98803.98
2019-03-22T14:40:56.222Z,98797.58
2019-03-22T14:43:24.799Z,98803.34
2019-03-22T14:45:56.005Z,98803.05
2019-03-22T14:48:24.557Z,98801.46
2019-03-22T14:50:54.748Z,98802.33
2019-03-22T14:53:23.002Z,98794.52
2019-03-22T14:55:51.594Z,98792.89
2019-03-22T14:58:20.085Z,98789.83
2019-03-22T15:00:49.074Z,98791.48
2019-03-22T15:03:24.068Z,98790.81
2019-03-22T15:05:54.775Z,98786.99
2019-03-22T15:08:23.437Z,98780.23
2019-03-22T15:10:51.790Z,98786.35
2019-03-22T15:13:23.314Z,98774.58
2019-03-22T15:16:10.059Z,98782.20
2019-03-22T15:18:56.416Z,98775.05
2019-03-22T15:21:59.459Z,98771.69
2019-03-22T15:24:59.673Z,98780.00
2019-03-22T15:27:46.084Z,98778.59
2019-03-22T15:30:32.797Z,98779.00
2019-03-22T15:33:34.218Z,98781.08
2019-03-22T15:36:09.981Z,98772.86
2019-03-22T15:39:00.998Z,98765.14
2019-03-22T15:41:30.604Z,98772.72
2019-03-22T15:44:00.045Z,98769.88
2019-03-22T15:46:28.583Z,98787.30
2019-03-22T15:48:57.197Z,98782.62
2019-03-22T15:51:25.828Z,98777.99
2019-03-22T15:53:54.365Z,98781.37
2019-03-22T15:56:22.972Z,98775.62
2019-03-22T15:58:51.438Z,98770.36
2019-03-22T16:01:19.984Z,98772.92
2019-03-22T16:03:48.504Z,98779.48
2019-03-22T16:06:16.882Z,98777.77
2019-03-22T16:08:45.349Z,98780.64
2019-03-22T16:11:13.917Z,98772.84
2019-03-22T16:13:42.908Z,98772.75
2019-03-22T16:16:11.482Z,98775.58
2019-03-22T16:18:39.983Z,98776.47
2019-03-22T16:21:08.550Z,98775.58
2019-03-22T16:23:36.937Z,98766.44
2019-03-22T16:26:05.635Z,98765.74
2019-03-22T16:28:34.271Z,98764.14
2019-03-22T16:31:02.865Z,98764.25
2019-03-22T16:33:31.389Z,98763.20
2019-03-22T16:35:59.826Z,98769.91
2019-03-22T16:38:28.464Z,98769.23
2019-03-22T16:40:56.874Z,98777.66
2019-03-22T16:43:25.509Z,98777.83
2019-03-22T16:45:53.999Z,98777.97
2019-03-22T16:48:22.478Z,98783.56
2019-03-22T16:50:51.214Z,98783.55
2019-03-22T16:53:19.680Z,98783.00
2019-03-22T16:55:48.405Z,98784.89
2019-03-22T16:58:16.738Z,98782.02
2019-03-22T17:00:45.215Z,98785.95
2019-03-22T17:03:13.652Z,98762.45
2019-03-22T17:05:42.475Z,98785.78
2019-03-22T17:08:11.021Z,98782.55
2019-03-22T17:10:39.525Z,98785.23
2019-03-22T17:13:08.074Z,98783.84
2019-03-22T17:15:36.591Z,98782.03
2019-03-22T17:18:05.101Z,98787.72
2019-03-22T17:20:33.616Z,98785.88
2019-03-22T17:23:02.037Z,98776.14
2019-03-22T17:25:30.931Z,98769.56
2019-03-22T17:27:59.415Z,98778.34
2019-03-22T17:30:27.869Z,98771.02
2019-03-22T17:32:56.401Z,98781.47
2019-03-22T17:35:24.941Z,98787.09
2019-03-22T17:37:53.279Z,98783.20
2019-03-22T17:40:21.633Z,98785.51
2019-03-22T17:42:50.056Z,98788.71
2019-03-22T17:45:18.613Z,98789.02
2019-03-22T17:47:47.393Z,98786.73
2019-03-22T17:50:16.305Z,98790.63
2019-03-22T17:52:44.827Z,98785.64
2019-03-22T17:55:13.392Z,98781.55
2019-03-22T17:57:41.838Z,98788.03
2019-03-22T18:00:10.567Z,98785.54
2019-03-22T18:02:39.194Z,98794.08
2019-03-22T18:05:10.171Z,98798.19
2019-03-22T18:07:38.551Z,98795.13
2019-03-22T18:10:07.560Z,98801.86
2019-03-22T18:12:36.132Z,98812.47
2019-03-22T18:15:05.846Z,98806.78
2019-03-22T18:17:34.490Z,98807.16
2019-03-22T18:20:03.564Z,98808.72
2019-03-22T18:22:32.016Z,98812.19
2019-03-22T18:25:00.347Z,98815.20
2019-03-22T18:27:31.688Z,98816.59
2019-03-22T18:30:00.038Z,98824.77
2019-03-22T18:32:28.500Z,98825.38
2019-03-22T18:34:57.812Z,98824.55
2019-03-22T18:37:26.247Z,98820.83
2019-03-22T18:39:54.479Z,98823.17
2019-03-22T18:42:22.749Z,98821.17
2019-03-22T18:44:51.259Z,98809.37
2019-03-22T18:47:19.851Z,98826.25
2019-03-22T18:49:48.195Z,98827.19
2019-03-22T18:52:16.718Z,98820.45
2019-03-22T18:54:45.266Z,98825.84
2019-03-22T18:57:13.867Z,98821.75
2019-03-22T18:59:42.137Z,98825.95
2019-03-22T19:02:10.994Z,98797.14
2019-03-22T19:04:43.912Z,98815.78
2019-03-22T19:07:09.734Z,98832.48
2019-03-22T19:09:38.401Z,98823.40
2019-03-22T19:12:07.037Z,98827.95
2019-03-22T19:14:35.391Z,98817.84
2019-03-22T19:17:04.133Z,98837.80
2019-03-22T19:19:32.422Z,98838.98
2019-03-22T19:22:00.799Z,98836.05
2019-03-22T19:24:29.308Z,98845.02
2019-03-22T19:26:57.715Z,98848.34
2019-03-22T19:29:25.947Z,98848.14
2019-03-22T19:31:54.431Z,98850.37
2019-03-22T19:34:22.957Z,98849.22
2019-03-22T19:36:51.521Z,98853.64
2019-03-22T19:39:19.899Z,98856.23
2019-03-22T19:41:49.591Z,98855.77
2019-03-22T19:44:17.936Z,98856.73
2019-03-22T19:46:46.444Z,98858.51
2019-03-22T19:49:15.169Z,98850.30
2019-03-22T19:51:43.516Z,98844.51
2019-03-22T19:54:11.921Z,98834.39
2019-03-22T19:56:40.467Z,98832.84
2019-03-22T19:59:09.119Z,98830.25
2019-03-22T20:01:37.584Z,98832.17
2019-03-22T20:04:06.265Z,98824.41
2019-03-22T20:06:34.699Z,98816.28
2019-03-22T20:09:07.026Z,98820.91
2019-03-22T20:11:36.038Z,98828.55
2019-03-22T20:14:04.497Z,98828.02
2019-03-22T20:16:33.241Z,98830.80
2019-03-22T20:19:01.681Z,98837.14
2019-03-22T20:21:31.794Z,98837.77
2019-03-22T20:24:00.054Z,98837.28
2019-03-22T20:26:28.434Z,98837.47
2019-03-22T20:28:56.974Z,98838.62
2019-03-22T20:31:25.488Z,98840.63
2019-03-22T20:33:54.266Z,98848.50
2019-03-22T20:36:22.688Z,98839.80
2019-03-22T20:38:50.989Z,98841.77
2019-03-22T20:41:19.458Z,98848.42
2019-03-22T20:43:48.037Z,98850.80
2019-03-22T20:46:16.664Z,98850.97
2019-03-22T20:48:45.312Z,98853.25
2019-03-22T20:51:13.890Z,98849.72
2019-03-22T20:53:42.430Z,98851.87
2019-03-22T20:56:10.936Z,98852.52
2019-03-22T20:58:39.885Z,98857.61
2019-03-22T21:01:08.180Z,98861.28
2019-03-22T21:03:37.004Z,98855.78
2019-03-22T21:06:05.704Z,98853.25
2019-03-22T21:08:34.224Z,98861.27
2019-03-22T21:11:02.623Z,98856.16
2019-03-22T21:13:31.155Z,98861.73
2019-03-22T21:15:59.839Z,98860.98
2019-03-22T21:18:28.353Z,98858.08
2019-03-22T21:20:56.724Z,98832.95
2019-03-22T21:23:35.763Z,98856.88
2019-03-22T21:25:55.554Z,98856.52
2019-03-22T21:28:23.951Z,98853.50
2019-03-22T21:30:52.344Z,98855.38
2019-03-22T21:33:20.690Z,98847.21
2019-03-22T21:35:49.029Z,98829.47
2019-03-22T21:38:17.569Z,98851.20
2019-03-22T21:40:45.896Z,98851.18
2019-03-22T21:43:14.195Z,98850.95
2019-03-22T21:45:42.692Z,98851.52
2019-03-22T21:48:11.058Z,98848.05
2019-03-22T21:50:39.348Z,98858.73
2019-03-22T21:53:07.893Z,98849.14
2019-03-22T21:55:36.431Z,98853.89
2019-03-22T21:58:04.874Z,98863.20
2019-03-22T22:00:33.401Z,98859.73
2019-03-22T22:03:04.711Z,98856.27
2019-03-22T22:05:34.111Z,98860.26
2019-03-22T22:08:02.898Z,98854.14
2019-03-22T22:10:31.210Z,98860.70
2019-03-22T22:12:59.655Z,98865.83
2019-03-22T22:15:28.177Z,98860.20
2019-03-22T22:17:56.548Z,98851.42
2019-03-22T22:20:28.995Z,98853.74
2019-03-22T22:22:55.197Z,98856.47
2019-03-22T22:25:23.808Z,98850.98
2019-03-22T22:27:52.200Z,98854.13
2019-03-22T22:30:20.687Z,98854.16
2019-03-22T22:32:49.042Z,98849.84
2019-03-22T22:35:17.419Z,98847.72
2019-03-22T22:37:46.131Z,98846.79
2019-03-22T22:40:14.520Z,98843.35
2019-03-22T22:42:43.082Z,98839.46
2019-03-22T22:45:11.588Z,98835.98
2019-03-22T22:47:39.958Z,98836.41
2019-03-22T22:50:09.085Z,98834.37
2019-03-22T22:52:37.527Z,98827.47
2019-03-22T22:55:06.489Z,98823.23
2019-03-22T22:57:34.986Z,98824.25
2019-03-22T23:00:03.668Z,98831.75
2019-03-22T23:02:32.601Z,98834.94
2019-03-22T23:05:00.987Z,98840.21
2019-03-22T23:07:29.529Z,98839.38
2019-03-22T23:09:57.969Z,98836.89
2019-03-22T23:12:26.299Z,98834.27
2019-03-22T23:14:54.576Z,98840.73
2019-03-22T23:17:22.892Z,98847.27
2019-03-22T23:19:51.665Z,98832.69
2019-03-22T23:22:20.029Z,98843.64
2019-03-22T23:24:48.626Z,98843.61
2019-03-22T23:27:16.976Z,98841.75
2019-03-22T23:29:45.610Z,98846.73
2019-03-22T23:32:14.143Z,98845.20
2019-03-22T23:34:42.578Z,98843.55
2019-03-22T23:37:10.968Z,98842.73
2019-03-22T23:39:39.607Z,98840.20
2019-03-22T23:42:08.062Z,98844.14
2019-03-22T23:44:36.592Z,98841.63
2019-03-22T23:47:04.962Z,98840.34
2019-03-22T23:49:33.663Z,98841.32
2019-03-22T23:52:02.167Z,98844.45
2019-03-22T23:54:30.561Z,98843.16
2019-03-22T23:56:59.029Z,98841.84
2019-03-22T23:59:27.700Z,98850.04
